Labinsk, Russia
Current Conditions -  °F | °C
As of 4:30 AM on Thursday 23 Oct 2014 (Local Time) from URMT Reporting Station
Clear Clear  
Wind Chill: 45°   Ceiling: Unl
Heat Index: 48°   Visibility: 6mi
Dew Point: 37°   Wind: 7mph
Humidity: 66%   Direction: 190°S
Pressure: 29.88"   Gusts: NA
Location:  44.63°N, 40.74°E
Report Text: URMT 230130Z 19003MPS CAVOK 09/03 Q1012 NOSIG RMK QFE719 SC070
Loading
Personal Weather Stations






























Interactive Weather Map
Tropical Storm Tracking
New forecast layout! Learn more

10-Day Weather Forecast

Advertisements
Track Severe Weather on mobile